createdAt,value
2023-04-01T00:00:54.510Z,100.00
2023-04-01T00:04:56.790Z,100.00
2023-04-01T00:08:58.902Z,100.00
2023-04-01T00:13:01.500Z,100.00
2023-04-01T00:17:04.216Z,100.00
2023-04-01T00:21:07.436Z,100.00
2023-04-01T00:25:10.435Z,100.00
2023-04-01T00:29:12.647Z,100.00
2023-04-01T00:33:14.891Z,100.00
2023-04-01T00:37:17.250Z,100.00
2023-04-01T00:41:22.470Z,100.00
2023-04-01T00:45:32.507Z,100.00
2023-04-01T00:49:40.144Z,100.00
2023-04-01T00:53:49.745Z,100.00
2023-04-01T00:57:54.517Z,100.00
2023-04-01T01:01:56.921Z,100.00
2023-04-01T01:06:02.955Z,100.00
2023-04-01T01:10:28.377Z,100.00
2023-04-01T01:14:56.363Z,100.00
2023-04-01T01:19:39.908Z,100.00
2023-04-01T01:23:42.416Z,100.00
2023-04-01T01:27:55.717Z,100.00
2023-04-01T01:32:14.814Z,100.00
2023-04-01T01:36:20.204Z,100.00
2023-04-01T01:40:23.395Z,100.00
2023-04-01T01:44:29.400Z,100.00
2023-04-01T01:48:32.823Z,100.00
2023-04-01T01:52:35.059Z,100.00
2023-04-01T01:56:37.942Z,100.00
2023-04-01T02:00:42.031Z,100.00
2023-04-01T02:04:47.211Z,100.00
2023-04-01T02:09:02.079Z,100.00
2023-04-01T02:13:14.976Z,100.00
2023-04-01T02:17:20.729Z,100.00
2023-04-01T02:21:27.927Z,100.00
2023-04-01T02:25:35.303Z,100.00
2023-04-01T02:29:37.974Z,100.00
2023-04-01T02:33:43.229Z,100.00
2023-04-01T02:37:49.627Z,100.00
2023-04-01T02:41:51.730Z,100.00
2023-04-01T02:45:54.655Z,100.00
2023-04-01T02:49:59.668Z,100.00
2023-04-01T02:54:02.280Z,100.00
2023-04-01T02:58:05.387Z,100.00
2023-04-01T03:02:08.360Z,100.00
2023-04-01T03:06:13.865Z,100.00
2023-04-01T03:10:16.425Z,100.00
2023-04-01T03:14:18.638Z,100.00
2023-04-01T03:18:21.131Z,100.00
2023-04-01T03:22:23.351Z,100.00
2023-04-01T03:26:28.009Z,100.00
2023-04-01T03:30:33.309Z,100.00
2023-04-01T03:34:35.879Z,100.00
2023-04-01T03:38:39.024Z,100.00
2023-04-01T03:42:41.375Z,100.00
2023-04-01T03:46:44.068Z,100.00
2023-04-01T03:50:46.373Z,100.00
2023-04-01T03:54:49.033Z,100.00
2023-04-01T03:58:51.581Z,100.00
2023-04-01T04:02:53.755Z,100.00
2023-04-01T04:07:01.669Z,100.00
2023-04-01T04:11:10.069Z,100.00
2023-04-01T04:15:16.337Z,100.00
2023-04-01T04:19:18.912Z,100.00
2023-04-01T04:23:21.679Z,100.00
2023-04-01T04:27:24.258Z,100.00
2023-04-01T04:31:38.219Z,100.00
2023-04-01T04:35:40.480Z,100.00
2023-04-01T04:39:42.748Z,100.00
2023-04-01T04:43:54.131Z,100.00
2023-04-01T04:47:57.479Z,100.00
2023-04-01T04:51:59.526Z,100.00
2023-04-01T04:56:03.313Z,100.00
2023-04-01T05:00:28.588Z,100.00
2023-04-01T05:04:37.589Z,100.00
2023-04-01T05:08:43.825Z,100.00
2023-04-01T05:12:46.232Z,100.00
2023-04-01T05:16:53.382Z,100.00
2023-04-01T05:20:56.163Z,100.00
2023-04-01T05:24:58.610Z,100.00
2023-04-01T05:29:01.208Z,100.00
2023-04-01T05:33:03.613Z,100.00
2023-04-01T05:37:06.219Z,100.00
2023-04-01T05:41:08.352Z,100.00
2023-04-01T05:45:16.502Z,100.00
2023-04-01T05:49:36.878Z,100.00
2023-04-01T05:53:40.323Z,100.00
2023-04-01T05:57:42.426Z,100.00
2023-04-01T06:01:44.936Z,100.00
2023-04-01T06:05:48.867Z,100.00
2023-04-01T06:09:51.004Z,100.00
2023-04-01T06:14:19.008Z,100.00
2023-04-01T06:18:24.067Z,100.00
2023-04-01T06:22:48.141Z,100.00
2023-04-01T06:27:17.485Z,100.00
2023-04-01T06:31:48.972Z,100.00
2023-04-01T06:35:57.280Z,100.00
2023-04-01T06:40:41.716Z,100.00
2023-04-01T06:44:56.585Z,100.00
2023-04-01T06:49:42.911Z,100.00
2023-04-01T06:54:22.715Z,100.00
2023-04-01T06:58:55.565Z,100.00
2023-04-01T07:03:04.914Z,100.00
2023-04-01T07:07:36.649Z,100.00
2023-04-01T07:11:43.273Z,100.00
2023-04-01T07:16:21.191Z,100.00
2023-04-01T07:20:33.371Z,100.00
2023-04-01T07:24:42.776Z,100.00
2023-04-01T07:28:46.382Z,100.00
2023-04-01T07:33:12.419Z,100.00
2023-04-01T07:37:56.037Z,100.00
2023-04-01T07:42:55.550Z,100.00
2023-04-01T07:47:07.292Z,100.00
2023-04-01T07:51:18.820Z,100.00
2023-04-01T07:56:03.181Z,100.00
2023-04-01T08:00:46.257Z,100.00
2023-04-01T08:05:14.699Z,100.00
2023-04-01T08:09:24.917Z,100.00
2023-04-01T08:13:57.151Z,100.00
2023-04-01T08:18:54.865Z,100.00
2023-04-01T08:23:32.539Z,100.00
2023-04-01T08:27:46.739Z,100.00
2023-04-01T08:32:07.087Z,100.00
2023-04-01T08:36:21.866Z,100.00
2023-04-01T08:40:51.789Z,100.00
2023-04-01T08:45:14.657Z,100.00
2023-04-01T08:49:35.810Z,100.00
2023-04-01T08:53:47.801Z,100.00
2023-04-01T08:58:07.957Z,100.00
2023-04-01T09:02:40.472Z,100.00
2023-04-01T09:07:46.875Z,100.00
2023-04-01T09:12:07.602Z,100.00
2023-04-01T09:16:28.797Z,100.00
2023-04-01T09:20:40.800Z,100.00
2023-04-01T09:25:14.334Z,98.80
2023-04-01T09:29:39.018Z,100.00
2023-04-01T09:34:00.923Z,95.00
2023-04-01T09:38:37.075Z,100.00
2023-04-01T09:42:57.884Z,100.00
2023-04-01T09:47:29.466Z,100.00
2023-04-01T09:51:38.586Z,100.00
2023-04-01T09:56:21.190Z,97.08
2023-04-01T10:00:35.628Z,100.00
2023-04-01T10:05:06.278Z,100.00
2023-04-01T10:09:26.798Z,100.00
2023-04-01T10:13:51.274Z,94.58
2023-04-01T10:17:59.704Z,97.35
2023-04-01T10:22:18.284Z,86.26
2023-04-01T10:26:56.576Z,92.24
2023-04-01T10:31:35.727Z,81.01
2023-04-01T10:35:50.288Z,96.83
2023-04-01T10:40:26.702Z,89.32
2023-04-01T10:45:20.042Z,88.93
2023-04-01T10:49:25.623Z,94.28
2023-04-01T10:54:13.210Z,75.40
2023-04-01T10:59:06.229Z,85.24
2023-04-01T11:03:54.550Z,82.82
2023-04-01T11:08:37.744Z,85.54
2023-04-01T11:13:04.707Z,78.49
2023-04-01T11:17:19.033Z,85.61
2023-04-01T11:21:43.617Z,82.59
2023-04-01T11:26:05.815Z,76.60
2023-04-01T11:30:50.204Z,83.05
2023-04-01T11:35:30.328Z,63.14
2023-04-01T11:39:38.720Z,73.06
2023-04-01T11:44:22.672Z,78.56
2023-04-01T11:49:06.953Z,67.93
2023-04-01T11:53:16.395Z,68.22
2023-04-01T11:57:34.548Z,71.93
2023-04-01T12:02:01.599Z,67.18
2023-04-01T12:06:12.510Z,72.87
2023-04-01T12:10:23.069Z,68.24
2023-04-01T12:14:34.303Z,66.31
2023-04-01T12:18:47.657Z,62.28
2023-04-01T12:23:22.499Z,49.52
2023-04-01T12:27:36.627Z,61.34
2023-04-01T12:32:03.589Z,59.37
2023-04-01T12:36:20.218Z,58.46
2023-04-01T12:40:29.614Z,60.93
2023-04-01T12:44:53.636Z,51.48
2023-04-01T12:49:17.159Z,48.40
2023-04-01T12:53:58.299Z,46.97
2023-04-01T12:58:07.274Z,51.93
2023-04-01T13:02:09.772Z,50.20
2023-04-01T13:06:45.657Z,43.37
2023-04-01T13:11:18.413Z,41.72
2023-04-01T13:15:44.480Z,39.64
2023-04-01T13:20:17.025Z,41.92
2023-04-01T13:24:25.289Z,41.69
2023-04-01T13:28:55.090Z,41.84
2023-04-01T13:33:10.773Z,39.31
2023-04-01T13:37:36.070Z,43.19
2023-04-01T13:42:14.000Z,37.31
2023-04-01T13:46:19.251Z,40.60
2023-04-01T13:51:15.958Z,38.16
2023-04-01T13:55:18.127Z,42.55
2023-04-01T13:59:41.845Z,35.57
2023-04-01T14:04:01.181Z,37.02
2023-04-01T14:08:21.452Z,40.83
2023-04-01T14:13:01.103Z,36.70
2023-04-01T14:17:18.486Z,36.19
2023-04-01T14:21:37.328Z,35.05
2023-04-01T14:26:17.205Z,32.55
2023-04-01T14:30:19.237Z,38.70
2023-04-01T14:35:03.058Z,36.06
2023-04-01T14:39:42.409Z,34.34
2023-04-01T14:44:08.237Z,34.59
2023-04-01T14:48:48.064Z,35.98
2023-04-01T14:53:11.595Z,35.82
2023-04-01T14:57:15.263Z,37.11
2023-04-01T15:01:29.472Z,36.69
2023-04-01T15:05:56.737Z,34.11
2023-04-01T15:10:11.039Z,36.33
2023-04-01T15:14:27.789Z,34.33
2023-04-01T15:18:44.441Z,33.96
2023-04-01T15:23:02.062Z,34.64
2023-04-01T15:27:23.210Z,31.29
2023-04-01T15:31:33.211Z,34.59
2023-04-01T15:35:52.711Z,32.71
2023-04-01T15:40:21.183Z,32.96
2023-04-01T15:44:43.548Z,33.36
2023-04-01T15:49:12.444Z,31.81
2023-04-01T15:53:47.817Z,32.87
2023-04-01T15:58:02.362Z,31.15
2023-04-01T16:02:22.898Z,33.15
2023-04-01T16:06:35.264Z,32.94
2023-04-01T16:11:19.724Z,29.09
2023-04-01T16:15:34.118Z,32.06
2023-04-01T16:20:10.798Z,32.16
2023-04-01T16:24:42.595Z,33.21
2023-04-01T16:28:56.330Z,34.54
2023-04-01T16:33:06.013Z,36.64
2023-04-01T16:37:16.866Z,40.92
2023-04-01T16:41:31.529Z,42.00
2023-04-01T16:45:46.221Z,43.35
2023-04-01T16:49:56.350Z,43.97
2023-04-01T16:54:15.703Z,45.09
2023-04-01T16:58:26.184Z,46.68
2023-04-01T17:02:35.164Z,49.21
2023-04-01T17:07:01.833Z,51.49
2023-04-01T17:11:20.143Z,50.91
2023-04-01T17:15:44.172Z,51.03
2023-04-01T17:20:17.438Z,51.07
2023-04-01T17:24:57.212Z,51.13
2023-04-01T17:29:26.099Z,51.25
2023-04-01T17:33:51.408Z,52.32
2023-04-01T17:38:22.545Z,52.53
2023-04-01T17:42:56.575Z,54.33
2023-04-01T17:47:20.559Z,54.68
2023-04-01T17:51:31.876Z,55.29
2023-04-01T17:55:46.529Z,57.96
2023-04-01T18:00:03.947Z,59.55
2023-04-01T18:04:26.445Z,59.76
2023-04-01T18:08:47.290Z,70.20
2023-04-01T18:13:01.869Z,65.48
2023-04-01T18:17:22.803Z,77.38
2023-04-01T18:21:48.651Z,76.43
2023-04-01T18:26:05.375Z,76.62
2023-04-01T18:30:19.196Z,83.68
2023-04-01T18:34:39.519Z,79.02
2023-04-01T18:38:50.129Z,88.08
2023-04-01T18:43:01.167Z,84.76
2023-04-01T18:47:26.455Z,93.56
2023-04-01T18:51:41.236Z,98.57
2023-04-01T18:55:47.651Z,100.00
2023-04-01T18:59:58.766Z,96.25
2023-04-01T19:04:19.848Z,99.90
2023-04-01T19:08:32.410Z,94.70
2023-04-01T19:12:42.013Z,89.44
2023-04-01T19:17:03.041Z,98.42
2023-04-01T19:21:11.718Z,90.84
2023-04-01T19:25:26.703Z,94.11
2023-04-01T19:29:32.143Z,95.24
2023-04-01T19:33:42.877Z,99.23
2023-04-01T19:38:23.336Z,100.00
2023-04-01T19:42:49.932Z,100.00
2023-04-01T19:47:33.894Z,100.00
2023-04-01T19:51:48.404Z,100.00
2023-04-01T19:56:06.090Z,100.00
2023-04-01T20:00:38.268Z,100.00
2023-04-01T20:04:52.312Z,99.72
2023-04-01T20:09:09.785Z,100.00
2023-04-01T20:13:24.996Z,100.00
2023-04-01T20:17:38.195Z,100.00
2023-04-01T20:21:40.415Z,100.00
2023-04-01T20:25:50.031Z,100.00
2023-04-01T20:30:29.279Z,100.00
2023-04-01T20:34:37.379Z,100.00
2023-04-01T20:38:58.643Z,100.00
2023-04-01T20:43:03.775Z,100.00
2023-04-01T20:47:19.741Z,100.00
2023-04-01T20:51:31.960Z,100.00
2023-04-01T20:55:57.811Z,100.00
2023-04-01T21:00:18.552Z,100.00
2023-04-01T21:05:05.037Z,100.00
2023-04-01T21:09:32.017Z,100.00
2023-04-01T21:14:06.978Z,100.00
2023-04-01T21:18:31.362Z,100.00
2023-04-01T21:23:21.473Z,100.00
2023-04-01T21:27:43.186Z,100.00
2023-04-01T21:32:07.097Z,100.00
2023-04-01T21:36:16.769Z,100.00
2023-04-01T21:40:46.672Z,100.00
2023-04-01T21:44:57.036Z,100.00
2023-04-01T21:49:11.564Z,100.00
2023-04-01T21:54:08.057Z,100.00
2023-04-01T21:58:41.265Z,100.00
2023-04-01T22:02:50.542Z,100.00
2023-04-01T22:07:14.076Z,100.00
2023-04-01T22:11:23.288Z,100.00
2023-04-01T22:16:12.560Z,100.00
2023-04-01T22:20:39.654Z,100.00
2023-04-01T22:25:08.071Z,100.00
2023-04-01T22:29:42.907Z,100.00
2023-04-01T22:34:03.564Z,100.00
2023-04-01T22:38:56.885Z,100.00
2023-04-01T22:43:04.513Z,100.00
2023-04-01T22:47:25.420Z,100.00
2023-04-01T22:51:46.200Z,100.00
2023-04-01T22:55:52.719Z,100.00
2023-04-01T23:00:02.216Z,100.00
2023-04-01T23:04:10.417Z,100.00
2023-04-01T23:08:52.767Z,100.00
2023-04-01T23:12:59.927Z,100.00
2023-04-01T23:17:10.418Z,100.00
2023-04-01T23:21:30.333Z,100.00
2023-04-01T23:25:54.558Z,100.00
2023-04-01T23:29:57.124Z,100.00
2023-04-01T23:34:24.521Z,100.00
2023-04-01T23:38:27.685Z,100.00
2023-04-01T23:42:41.375Z,100.00
2023-04-01T23:46:47.676Z,100.00
2023-04-01T23:50:49.866Z,100.00
2023-04-01T23:55:10.598Z,100.00
2023-04-01T23:59:23.305Z,100.00
